createdAt,value
2022-12-17T00:00:00.375Z,19.92
2022-12-17T00:02:45.740Z,17.60
2022-12-17T00:05:30.719Z,17.55
2022-12-17T00:08:16.702Z,16.15
2022-12-17T00:11:01.898Z,17.48
2022-12-17T00:13:47.262Z,16.90
2022-12-17T00:16:40.261Z,17.33
2022-12-17T00:19:25.432Z,16.80
2022-12-17T00:22:16.074Z,17.83
2022-12-17T00:25:01.320Z,18.55
2022-12-17T00:27:46.560Z,17.20
2022-12-17T00:30:31.845Z,18.27
2022-12-17T00:33:18.519Z,17.60
2022-12-17T00:36:10.085Z,16.48
2022-12-17T00:38:56.182Z,17.40
2022-12-17T00:41:42.013Z,16.92
2022-12-17T00:44:27.420Z,18.38
2022-12-17T00:47:12.682Z,18.65
2022-12-17T00:49:59.010Z,18.17
2022-12-17T00:52:44.194Z,16.40
2022-12-17T00:55:29.591Z,16.02
2022-12-17T00:58:16.091Z,18.75
2022-12-17T01:01:02.015Z,17.17
2022-12-17T01:03:47.852Z,16.63
2022-12-17T01:06:34.329Z,17.88
2022-12-17T01:09:19.742Z,16.88
2022-12-17T01:12:05.174Z,18.25
2022-12-17T01:14:50.472Z,17.08
2022-12-17T01:17:35.881Z,16.98
2022-12-17T01:20:21.155Z,18.00
2022-12-17T01:23:07.915Z,18.85
2022-12-17T01:25:53.355Z,18.45
2022-12-17T01:28:42.051Z,18.10
2022-12-17T01:31:31.440Z,18.10
2022-12-17T01:34:19.865Z,17.42
2022-12-17T01:37:05.341Z,18.52
2022-12-17T01:39:51.963Z,16.17
2022-12-17T01:42:37.412Z,18.02
2022-12-17T01:45:23.344Z,17.15
2022-12-17T01:48:11.300Z,16.85
2022-12-17T01:51:00.171Z,16.02
2022-12-17T01:53:49.846Z,17.35
2022-12-17T01:56:36.593Z,16.35
2022-12-17T01:59:23.866Z,17.30
2022-12-17T02:02:09.266Z,16.45
2022-12-17T02:04:54.924Z,16.83
2022-12-17T02:07:53.464Z,18.05
2022-12-17T02:10:44.280Z,17.30
2022-12-17T02:13:38.001Z,15.23
2022-12-17T02:16:29.633Z,16.83
2022-12-17T02:19:20.866Z,16.60
2022-12-17T02:22:12.209Z,18.00
2022-12-17T02:25:05.681Z,16.95
2022-12-17T02:27:53.293Z,17.80
2022-12-17T02:30:46.964Z,17.10
2022-12-17T02:33:41.310Z,17.10
2022-12-17T02:36:27.171Z,17.67
2022-12-17T02:39:12.336Z,17.95
2022-12-17T02:42:10.532Z,16.75
2022-12-17T02:44:59.153Z,17.90
2022-12-17T02:47:44.636Z,16.88
2022-12-17T02:50:30.220Z,15.50
2022-12-17T02:53:18.564Z,16.83
2022-12-17T02:56:03.992Z,17.00
2022-12-17T02:58:49.335Z,16.63
2022-12-17T03:01:36.028Z,17.00
2022-12-17T03:04:21.315Z,18.10
2022-12-17T03:07:14.993Z,16.58
2022-12-17T03:10:00.269Z,17.33
2022-12-17T03:12:45.681Z,17.38
2022-12-17T03:15:30.983Z,17.55
2022-12-17T03:18:16.699Z,18.33
2022-12-17T03:21:02.147Z,17.73
2022-12-17T03:23:47.527Z,16.52
2022-12-17T03:26:32.733Z,16.50
2022-12-17T03:29:18.148Z,16.65
2022-12-17T03:32:03.360Z,16.23
2022-12-17T03:34:50.109Z,17.08
2022-12-17T03:37:35.553Z,16.90
2022-12-17T03:40:21.129Z,16.50
2022-12-17T03:43:06.270Z,16.67
2022-12-17T03:45:51.733Z,16.30
2022-12-17T03:48:36.945Z,15.88
2022-12-17T03:51:23.784Z,16.17
2022-12-17T03:54:09.106Z,16.92
2022-12-17T03:56:54.517Z,17.52
2022-12-17T03:59:39.834Z,16.27
2022-12-17T04:02:25.429Z,16.80
2022-12-17T04:05:15.073Z,16.77
2022-12-17T04:08:04.504Z,16.92
2022-12-17T04:10:49.910Z,16.88
2022-12-17T04:13:40.518Z,17.33
2022-12-17T04:16:26.345Z,16.75
2022-12-17T04:19:11.567Z,15.95
2022-12-17T04:22:02.265Z,16.50
2022-12-17T04:24:49.043Z,16.52
2022-12-17T04:27:34.215Z,17.23
2022-12-17T04:30:19.455Z,17.00
2022-12-17T04:33:04.754Z,17.73
2022-12-17T04:35:50.098Z,17.50
2022-12-17T04:38:50.209Z,17.55
2022-12-17T04:41:36.918Z,17.08
2022-12-17T04:44:22.010Z,16.60
2022-12-17T04:47:07.263Z,19.30
2022-12-17T04:49:52.436Z,17.85
2022-12-17T04:52:37.682Z,15.15
2022-12-17T04:55:22.942Z,17.35
2022-12-17T04:58:09.557Z,18.02
2022-12-17T05:00:54.763Z,16.95
2022-12-17T05:03:40.904Z,16.75
2022-12-17T05:06:27.558Z,16.90
2022-12-17T05:09:12.817Z,18.05
2022-12-17T05:11:58.114Z,19.17
2022-12-17T05:14:44.668Z,24.70
2022-12-17T05:17:29.777Z,26.00
2022-12-17T05:20:15.168Z,26.67
2022-12-17T05:23:02.687Z,28.02
2022-12-17T05:25:47.932Z,29.75
2022-12-17T05:28:33.296Z,30.15
2022-12-17T05:31:20.690Z,28.63
2022-12-17T05:34:05.926Z,30.45
2022-12-17T05:36:51.174Z,28.95
2022-12-17T05:39:36.505Z,26.00
2022-12-17T05:42:21.720Z,26.95
2022-12-17T05:45:07.050Z,27.35
2022-12-17T05:47:53.624Z,29.65
2022-12-17T05:50:38.896Z,28.73
2022-12-17T05:53:24.643Z,27.85
2022-12-17T05:56:10.903Z,27.17
2022-12-17T05:58:56.256Z,24.67
2022-12-17T06:01:41.708Z,31.13
2022-12-17T06:04:29.394Z,31.25
2022-12-17T06:07:14.644Z,31.20
2022-12-17T06:10:00.113Z,31.85
2022-12-17T06:12:45.428Z,25.25
2022-12-17T06:15:31.077Z,25.25
2022-12-17T06:18:17.220Z,27.80
2022-12-17T06:21:04.600Z,26.50
2022-12-17T06:23:50.104Z,26.23
2022-12-17T06:26:35.586Z,27.35
2022-12-17T06:29:21.092Z,29.38
2022-12-17T06:32:06.086Z,28.63
2022-12-17T06:34:51.391Z,27.60
2022-12-17T06:37:38.101Z,25.70
2022-12-17T06:40:32.589Z,28.77
2022-12-17T06:43:17.916Z,26.98
2022-12-17T06:46:03.353Z,25.75
2022-12-17T06:48:48.851Z,25.27
2022-12-17T06:51:34.004Z,25.52
2022-12-17T06:54:20.584Z,26.73
2022-12-17T06:57:05.934Z,27.42
2022-12-17T06:59:59.684Z,26.35
2022-12-17T07:02:45.101Z,26.98
2022-12-17T07:05:30.368Z,25.60
2022-12-17T07:08:16.276Z,28.42
2022-12-17T07:11:03.278Z,29.73
2022-12-17T07:13:48.859Z,28.60
2022-12-17T07:16:34.228Z,25.73
2022-12-17T07:19:27.023Z,33.20
2022-12-17T07:22:12.896Z,28.38
2022-12-17T07:24:58.275Z,28.33
2022-12-17T07:27:44.997Z,27.75
2022-12-17T07:30:30.909Z,27.52
2022-12-17T07:33:19.806Z,27.27
2022-12-17T07:36:05.048Z,25.23
2022-12-17T07:38:51.470Z,25.83
2022-12-17T07:41:36.719Z,27.13
2022-12-17T07:44:23.471Z,28.05
2022-12-17T07:47:08.673Z,28.45
2022-12-17T07:49:54.476Z,27.27
2022-12-17T07:52:39.800Z,27.77
2022-12-17T07:55:25.209Z,30.13
2022-12-17T07:58:17.051Z,29.48
2022-12-17T08:01:03.773Z,26.95
2022-12-17T08:03:49.177Z,25.60
2022-12-17T08:06:34.849Z,27.63
2022-12-17T08:09:20.229Z,27.08
2022-12-17T08:12:05.257Z,30.00
2022-12-17T08:14:50.593Z,30.33
2022-12-17T08:17:37.400Z,29.95
2022-12-17T08:20:23.578Z,31.08
2022-12-17T08:23:08.727Z,27.92
2022-12-17T08:25:54.162Z,27.15
2022-12-17T08:28:50.550Z,28.65
2022-12-17T08:31:37.045Z,27.08
2022-12-17T08:34:23.698Z,30.83
2022-12-17T08:37:09.042Z,32.53
2022-12-17T08:39:54.476Z,30.70
2022-12-17T08:42:39.979Z,29.88
2022-12-17T08:45:26.008Z,30.92
2022-12-17T08:48:11.151Z,31.33
2022-12-17T08:50:57.990Z,31.92
2022-12-17T08:53:43.376Z,31.55
2022-12-17T08:56:28.600Z,30.83
2022-12-17T08:59:13.888Z,29.10
2022-12-17T09:01:59.493Z,29.80
2022-12-17T09:04:44.925Z,29.35
2022-12-17T09:07:31.607Z,30.30
2022-12-17T09:10:17.132Z,28.00
2022-12-17T09:13:05.186Z,29.10
2022-12-17T09:15:51.374Z,29.08
2022-12-17T09:18:38.012Z,26.65
2022-12-17T09:21:24.157Z,27.50
2022-12-17T09:24:10.581Z,26.88
2022-12-17T09:26:55.965Z,28.10
2022-12-17T09:29:41.189Z,28.25
2022-12-17T09:32:26.715Z,28.70
2022-12-17T09:35:26.535Z,26.70
2022-12-17T09:38:12.480Z,28.17
2022-12-17T09:41:04.201Z,27.75
2022-12-17T09:44:00.781Z,28.33
2022-12-17T09:46:51.853Z,26.77
2022-12-17T09:49:41.118Z,28.33
2022-12-17T09:52:37.527Z,27.40
2022-12-17T09:55:33.804Z,26.52
2022-12-17T09:58:22.592Z,29.83
2022-12-17T10:01:08.480Z,28.98
2022-12-17T10:03:55.273Z,28.42
2022-12-17T10:06:58.223Z,28.48
2022-12-17T10:09:47.299Z,26.83
2022-12-17T10:12:34.726Z,24.90
2022-12-17T10:15:21.910Z,27.77
2022-12-17T10:18:07.101Z,27.30
2022-12-17T10:20:57.942Z,25.83
2022-12-17T10:23:44.817Z,27.88
2022-12-17T10:26:35.964Z,29.17
2022-12-17T10:29:28.443Z,28.20
2022-12-17T10:32:18.735Z,27.58
2022-12-17T10:35:05.827Z,29.20
2022-12-17T10:37:53.954Z,28.27
2022-12-17T10:40:44.655Z,28.40
2022-12-17T10:43:44.331Z,25.50
2022-12-17T10:46:29.725Z,25.63
2022-12-17T10:49:29.813Z,27.95
2022-12-17T10:52:19.192Z,29.80
2022-12-17T10:55:15.123Z,31.30
2022-12-17T10:58:01.838Z,28.83
2022-12-17T11:00:50.840Z,29.48
2022-12-17T11:03:44.183Z,30.25
2022-12-17T11:06:37.498Z,26.48
2022-12-17T11:09:37.071Z,30.98
2022-12-17T11:12:30.275Z,26.00
2022-12-17T11:15:19.768Z,27.45
2022-12-17T11:18:11.150Z,27.02
2022-12-17T11:21:06.258Z,25.50
2022-12-17T11:23:55.334Z,25.88
2022-12-17T11:26:43.719Z,29.45
2022-12-17T11:29:31.104Z,28.77
2022-12-17T11:32:34.076Z,28.55
2022-12-17T11:35:28.528Z,27.60
2022-12-17T11:38:22.651Z,27.58
2022-12-17T11:41:13.893Z,28.58
2022-12-17T11:44:10.377Z,30.85
2022-12-17T11:47:07.405Z,28.75
2022-12-17T11:50:03.472Z,28.77
2022-12-17T11:52:55.750Z,28.38
2022-12-17T11:55:48.184Z,28.35
2022-12-17T11:58:44.599Z,30.17
2022-12-17T12:01:38.749Z,28.52
2022-12-17T12:04:37.424Z,25.30
2022-12-17T12:07:44.898Z,28.63
2022-12-17T12:10:36.411Z,28.52
2022-12-17T12:13:36.848Z,27.70
2022-12-17T12:16:31.658Z,28.67
2022-12-17T12:19:30.738Z,28.20
2022-12-17T12:22:20.077Z,28.05
2022-12-17T12:25:18.145Z,28.00
2022-12-17T12:28:13.066Z,32.55
2022-12-17T12:31:11.074Z,30.25
2022-12-17T12:34:06.300Z,33.90
2022-12-17T12:36:52.584Z,30.75
2022-12-17T12:39:42.857Z,34.22
2022-12-17T12:42:36.754Z,29.30
2022-12-17T12:45:31.932Z,33.38
2022-12-17T12:48:22.101Z,32.80
2022-12-17T12:51:17.348Z,31.45
2022-12-17T12:54:02.588Z,32.67
2022-12-17T12:56:52.120Z,32.60
2022-12-17T12:59:45.098Z,32.47
2022-12-17T13:02:44.301Z,31.92
2022-12-17T13:05:33.917Z,32.53
2022-12-17T13:08:23.822Z,36.10
2022-12-17T13:10:54.142Z,33.72
2022-12-17T13:13:37.234Z,35.90
2022-12-17T13:16:17.527Z,33.72
2022-12-17T13:18:45.685Z,34.10
2022-12-17T13:21:27.095Z,34.95
2022-12-17T13:23:56.409Z,34.05
2022-12-17T13:26:31.247Z,34.55
2022-12-17T13:29:02.530Z,33.75
2022-12-17T13:31:41.361Z,34.42
2022-12-17T13:34:20.595Z,32.67
2022-12-17T13:36:55.921Z,33.05
2022-12-17T13:39:35.907Z,35.65
2022-12-17T13:42:03.894Z,33.45
2022-12-17T13:44:39.896Z,35.65
2022-12-17T13:47:21.837Z,36.60
2022-12-17T13:50:24.418Z,32.80
2022-12-17T13:52:40.200Z,35.40
2022-12-17T13:55:18.626Z,31.48
2022-12-17T13:57:47.417Z,33.38
2022-12-17T14:00:22.125Z,34.38
2022-12-17T14:02:50.262Z,34.60
2022-12-17T14:05:25.461Z,34.60
2022-12-17T14:07:53.952Z,31.48
2022-12-17T14:10:23.066Z,34.28
2022-12-17T14:12:51.126Z,33.55
2022-12-17T14:15:25.412Z,32.90
2022-12-17T14:17:55.115Z,36.45
2022-12-17T14:20:25.386Z,35.90
2022-12-17T14:22:55.765Z,36.05
2022-12-17T14:25:27.223Z,38.03
2022-12-17T14:27:57.178Z,38.22
2022-12-17T14:30:31.963Z,34.00
2022-12-17T14:32:59.720Z,34.58
2022-12-17T14:35:30.096Z,35.33
2022-12-17T14:37:57.854Z,40.97
2022-12-17T14:40:27.706Z,40.50
2022-12-17T14:43:01.544Z,39.63
2022-12-17T14:45:30.229Z,37.88
2022-12-17T14:48:00.324Z,40.20
2022-12-17T14:50:32.112Z,38.85
2022-12-17T14:53:01.720Z,39.95
2022-12-17T14:55:37.472Z,39.80
2022-12-17T14:58:22.485Z,36.40
2022-12-17T15:00:53.640Z,36.03
2022-12-17T15:03:26.194Z,35.45
2022-12-17T15:05:58.031Z,35.70
2022-12-17T15:08:26.442Z,37.80
2022-12-17T15:10:56.691Z,35.28
2022-12-17T15:13:24.354Z,35.80
2022-12-17T15:15:52.087Z,36.80
2022-12-17T15:18:19.747Z,39.90
2022-12-17T15:20:47.649Z,36.00
2022-12-17T15:23:18.062Z,37.20
2022-12-17T15:25:47.201Z,39.75
2022-12-17T15:28:17.628Z,38.00
2022-12-17T15:30:45.843Z,44.38
2022-12-17T15:33:14.184Z,40.80
2022-12-17T15:35:43.900Z,44.13
2022-12-17T15:38:13.434Z,43.55
2022-12-17T15:40:41.552Z,44.92
2022-12-17T15:43:13.316Z,44.10
2022-12-17T15:45:44.243Z,39.03
2022-12-17T15:48:13.422Z,39.80
2022-12-17T15:50:41.983Z,37.95
2022-12-17T15:53:10.197Z,38.80
2022-12-17T15:55:39.194Z,40.22
2022-12-17T15:58:07.790Z,41.67
2022-12-17T16:00:36.107Z,40.17
2022-12-17T16:03:05.342Z,39.58
2022-12-17T16:05:33.295Z,40.20
2022-12-17T16:08:02.625Z,36.45
2022-12-17T16:10:31.108Z,41.40
2022-12-17T16:12:58.836Z,39.08
2022-12-17T16:15:26.674Z,42.20
2022-12-17T16:17:54.404Z,42.03
2022-12-17T16:20:24.103Z,45.13
2022-12-17T16:22:51.798Z,44.85
2022-12-17T16:25:19.615Z,47.53
2022-12-17T16:27:47.309Z,45.45
2022-12-17T16:30:15.489Z,45.22
2022-12-17T16:32:43.300Z,46.45
2022-12-17T16:35:11.166Z,44.83
2022-12-17T16:37:40.294Z,44.45
2022-12-17T16:40:09.225Z,43.08
2022-12-17T16:42:36.937Z,46.80
2022-12-17T16:45:05.295Z,45.30
2022-12-17T16:47:33.217Z,47.45
2022-12-17T16:50:01.014Z,47.45
2022-12-17T16:52:28.667Z,45.13
2022-12-17T16:54:58.409Z,47.58
2022-12-17T16:57:26.236Z,44.58
2022-12-17T16:59:54.047Z,45.97
2022-12-17T17:02:21.960Z,44.53
2022-12-17T17:04:49.951Z,46.97
2022-12-17T17:07:17.703Z,46.53
2022-12-17T17:09:47.962Z,46.63
2022-12-17T17:12:17.067Z,42.97
2022-12-17T17:14:44.886Z,43.28
2022-12-17T17:17:12.804Z,45.28
2022-12-17T17:19:40.705Z,44.05
2022-12-17T17:22:08.638Z,43.17
2022-12-17T17:24:36.388Z,44.35
2022-12-17T17:27:04.295Z,45.38
2022-12-17T17:29:33.538Z,45.97
2022-12-17T17:32:16.869Z,48.65
2022-12-17T17:34:44.580Z,44.40
2022-12-17T17:37:12.471Z,46.03
2022-12-17T17:39:40.376Z,43.67
2022-12-17T17:42:08.140Z,46.17
2022-12-17T17:44:38.289Z,43.22
2022-12-17T17:47:06.168Z,45.25
2022-12-17T17:49:33.849Z,47.33
2022-12-17T17:52:10.244Z,44.47
2022-12-17T17:54:39.464Z,44.33
2022-12-17T17:57:07.331Z,45.97
2022-12-17T17:59:34.973Z,44.22
2022-12-17T18:02:04.598Z,45.25
2022-12-17T18:04:32.964Z,41.78
2022-12-17T18:09:48.322Z,45.75
2022-12-17T18:12:33.351Z,43.85
2022-12-17T18:15:18.118Z,45.13
2022-12-17T18:17:50.584Z,42.53
2022-12-17T18:20:18.722Z,43.40
2022-12-17T18:22:47.284Z,44.53
2022-12-17T18:25:15.394Z,44.08
2022-12-17T18:27:43.068Z,45.60
2022-12-17T18:30:11.702Z,42.53
2022-12-17T18:32:39.411Z,42.75
2022-12-17T18:35:09.616Z,40.63
2022-12-17T18:37:37.541Z,42.20
2022-12-17T18:40:06.070Z,44.03
2022-12-17T18:42:51.260Z,42.65
2022-12-17T18:45:19.013Z,42.92
2022-12-17T18:47:46.908Z,42.72
2022-12-17T18:50:16.017Z,45.50
2022-12-17T18:52:43.634Z,42.00
2022-12-17T18:55:11.516Z,43.92
2022-12-17T18:57:42.346Z,45.85
2022-12-17T19:00:11.607Z,43.30
2022-12-17T19:02:39.596Z,43.83
2022-12-17T19:05:07.889Z,41.83
2022-12-17T19:07:37.105Z,43.13
2022-12-17T19:10:05.514Z,46.30
2022-12-17T19:12:38.896Z,47.17
2022-12-17T19:15:07.427Z,47.80
2022-12-17T19:17:35.264Z,46.08
2022-12-17T19:20:03.096Z,46.03
2022-12-17T19:22:31.136Z,47.97
2022-12-17T19:25:00.514Z,45.58
2022-12-17T19:27:28.842Z,45.90
2022-12-17T19:29:57.137Z,43.05
2022-12-17T19:32:26.006Z,46.00
2022-12-17T19:34:54.080Z,46.42
2022-12-17T19:37:21.832Z,49.70
2022-12-17T19:39:50.676Z,48.28
2022-12-17T19:42:25.633Z,43.78
2022-12-17T19:44:55.454Z,47.42
2022-12-17T19:47:24.025Z,46.13
2022-12-17T19:49:52.101Z,45.80
2022-12-17T19:52:20.147Z,46.67
2022-12-17T19:54:47.905Z,43.88
2022-12-17T19:57:15.643Z,46.50
2022-12-17T19:59:44.616Z,45.67
2022-12-17T20:02:12.573Z,46.78
2022-12-17T20:04:40.460Z,46.47
2022-12-17T20:07:08.238Z,44.20
2022-12-17T20:09:35.989Z,46.08
2022-12-17T20:12:03.763Z,43.70
2022-12-17T20:14:31.531Z,41.80
2022-12-17T20:17:02.481Z,42.75
2022-12-17T20:19:32.306Z,43.95
2022-12-17T20:22:01.681Z,43.55
2022-12-17T20:24:31.964Z,46.22
2022-12-17T20:27:00.973Z,44.83
2022-12-17T20:29:29.333Z,44.25
2022-12-17T20:31:57.249Z,42.78
2022-12-17T20:34:26.621Z,45.25
2022-12-17T20:36:54.802Z,46.58
2022-12-17T20:39:27.248Z,45.20
2022-12-17T20:41:56.179Z,44.22
2022-12-17T20:44:23.976Z,45.13
2022-12-17T20:46:52.008Z,43.22
2022-12-17T20:49:19.719Z,43.72
2022-12-17T20:51:48.785Z,43.08
2022-12-17T20:54:16.526Z,42.80
2022-12-17T20:56:44.283Z,42.67
2022-12-17T20:59:15.601Z,45.13
2022-12-17T21:01:44.523Z,40.92
2022-12-17T21:04:13.936Z,41.65
2022-12-17T21:06:43.262Z,41.00
2022-12-17T21:09:14.039Z,40.78
2022-12-17T21:11:43.598Z,39.30
2022-12-17T21:14:13.286Z,43.55
2022-12-17T21:16:41.953Z,42.50
2022-12-17T21:19:11.115Z,41.30
2022-12-17T21:21:39.385Z,41.60
2022-12-17T21:24:08.566Z,41.90
2022-12-17T21:26:39.932Z,39.22
2022-12-17T21:29:08.955Z,39.88
2022-12-17T21:31:40.412Z,39.65
2022-12-17T21:34:11.807Z,38.70
2022-12-17T21:36:40.721Z,39.65
2022-12-17T21:39:10.517Z,40.78
2022-12-17T21:41:43.657Z,42.10
2022-12-17T21:44:15.348Z,41.35
2022-12-17T21:46:43.697Z,38.72
2022-12-17T21:49:15.851Z,41.47
2022-12-17T21:51:43.944Z,38.83
2022-12-17T21:54:17.273Z,38.45
2022-12-17T21:56:48.967Z,39.45
2022-12-17T21:59:16.897Z,39.20
2022-12-17T22:01:44.911Z,39.92
2022-12-17T22:04:13.065Z,42.72
2022-12-17T22:06:46.969Z,38.13
2022-12-17T22:09:26.821Z,40.95
2022-12-17T22:12:24.007Z,39.85
2022-12-17T22:14:51.732Z,42.13
2022-12-17T22:17:19.903Z,41.35
2022-12-17T22:19:47.597Z,37.72
2022-12-17T22:22:15.350Z,36.83
2022-12-17T22:24:43.063Z,39.80
2022-12-17T22:27:12.271Z,40.08
2022-12-17T22:29:57.285Z,37.47
2022-12-17T22:32:42.538Z,39.65
2022-12-17T22:36:13.075Z,40.60
2022-12-17T22:40:52.360Z,41.92
2022-12-17T22:44:30.801Z,39.85
2022-12-17T22:44:46.139Z,40.50
2022-12-17T22:46:23.111Z,37.40
2022-12-17T22:48:50.791Z,39.13
2022-12-17T22:51:26.571Z,39.83
2022-12-17T22:53:57.111Z,37.35
2022-12-17T22:56:51.694Z,39.88
2022-12-17T22:59:16.498Z,38.70
2022-12-17T23:01:44.763Z,39.95
2022-12-17T23:04:14.656Z,41.00
2022-12-17T23:06:45.253Z,40.55
2022-12-17T23:09:13.016Z,41.03
2022-12-17T23:11:40.695Z,39.88
2022-12-17T23:14:09.111Z,39.35
2022-12-17T23:16:40.450Z,38.67
2022-12-17T23:19:08.754Z,39.85
2022-12-17T23:21:36.695Z,40.22
2022-12-17T23:24:05.038Z,41.15
2022-12-17T23:26:34.717Z,42.13
2022-12-17T23:29:05.073Z,40.92
2022-12-17T23:31:35.234Z,40.38
2022-12-17T23:34:04.622Z,37.03
2022-12-17T23:36:32.485Z,38.95
2022-12-17T23:39:00.713Z,40.42
2022-12-17T23:41:31.905Z,39.58
2022-12-17T23:44:00.148Z,39.22
2022-12-17T23:46:30.138Z,38.35
2022-12-17T23:48:58.192Z,39.05
2022-12-17T23:51:28.143Z,39.30
2022-12-17T23:53:55.782Z,39.30
2022-12-17T23:56:27.569Z,39.97
2022-12-17T23:58:59.223Z,39.08
